N852SB EGPF-EGLC
Flight info
| Callsign | N852SB |
|---|---|
| Flight time | 1h 37m |
| Altitude | 23000 |
| Route | LUSIV L612 LISTO |
| Aircraft | TBM9/L-SDFGRWY/S |
Departure
| Time | 2026-04-30 20:50 |
|---|---|
| Airport | Glasgow Airport (EGPF) |
Arrival
| Time | 2026-04-30 22:27 |
|---|---|
| Airport | London City Airport (EGLC) |
| Time | Latitude | Longitude | Altitude | Speed | Heading |
|---|---|---|---|---|---|
| 2026-04-30 20:30 | 55.87078 | -4.42594 | 25 ft | 0 kts | 289° |
| 2026-04-30 20:42 | 55.87074 | -4.42606 | 25 ft | 3 kts | 197° |
| 2026-04-30 20:43 | 55.87041 | -4.42616 | 26 ft | 9 kts | 193° |
| 2026-04-30 20:43 | 55.87023 | -4.42657 | 26 ft | 6 kts | 287° |
| 2026-04-30 20:43 | 55.87043 | -4.42765 | 25 ft | 12 kts | 285° |
| 2026-04-30 20:44 | 55.86933 | -4.42903 | 27 ft | 12 kts | 205° |
| 2026-04-30 20:44 | 55.86853 | -4.42992 | 27 ft | 14 kts | 245° |
| 2026-04-30 20:44 | 55.86795 | -4.43346 | 27 ft | 15 kts | 253° |
| 2026-04-30 20:45 | 55.86746 | -4.43648 | 28 ft | 9 kts | 254° |
| 2026-04-30 20:45 | 55.86727 | -4.43753 | 23 ft | 9 kts | 245° |
| 2026-04-30 20:45 | 55.86683 | -4.43847 | 23 ft | 11 kts | 228° |
| 2026-04-30 20:46 | 55.86520 | -4.44148 | 28 ft | 12 kts | 225° |
| 2026-04-30 20:46 | 55.86468 | -4.44245 | 28 ft | 11 kts | 226° |
| 2026-04-30 20:47 | 55.86341 | -4.44483 | 27 ft | 16 kts | 227° |
| 2026-04-30 20:47 | 55.86264 | -4.44629 | 25 ft | 13 kts | 226° |
| 2026-04-30 20:48 | 55.86288 | -4.44772 | 27 ft | 0 kts | 317° |
| 2026-04-30 20:49 | 55.86297 | -4.44786 | 27 ft | 4 kts | 316° |
| 2026-04-30 20:50 | 55.86405 | -4.44798 | 28 ft | 17 kts | 46° |
| 2026-04-30 20:50 | 55.86637 | -4.44367 | 32 ft | 82 kts | 46° |
| 2026-04-30 20:50 | 55.87117 | -4.43477 | 305 ft | 113 kts | 47° |
| 2026-04-30 20:50 | 55.87711 | -4.42364 | 790 ft | 129 kts | 48° |
| 2026-04-30 20:51 | 55.88386 | -4.41131 | 1156 ft | 150 kts | 48° |
| 2026-04-30 20:51 | 55.89949 | -4.38129 | 1851 ft | 182 kts | 52° |
| 2026-04-30 20:51 | 55.90825 | -4.36484 | 2358 ft | 185 kts | 50° |
| 2026-04-30 20:52 | 55.91721 | -4.34827 | 2799 ft | 190 kts | 51° |
| 2026-04-30 20:52 | 55.92634 | -4.33095 | 3305 ft | 192 kts | 56° |
| 2026-04-30 20:52 | 55.93208 | -4.28658 | 4278 ft | 184 kts | 105° |
| 2026-04-30 20:53 | 55.92732 | -4.26560 | 4769 ft | 182 kts | 128° |
| 2026-04-30 20:53 | 55.91848 | -4.24983 | 5251 ft | 180 kts | 149° |
| 2026-04-30 20:53 | 55.90699 | -4.24140 | 5751 ft | 178 kts | 170° |
| 2026-04-30 20:54 | 55.88223 | -4.24504 | 6700 ft | 182 kts | 188° |
| 2026-04-30 20:54 | 55.86985 | -4.24841 | 7174 ft | 182 kts | 188° |
| 2026-04-30 20:54 | 55.85737 | -4.25193 | 7653 ft | 182 kts | 188° |
| 2026-04-30 20:55 | 55.83231 | -4.25907 | 8606 ft | 182 kts | 188° |
| 2026-04-30 20:55 | 55.81976 | -4.26261 | 9090 ft | 182 kts | 187° |
| 2026-04-30 20:55 | 55.80726 | -4.26614 | 9570 ft | 182 kts | 187° |
| 2026-04-30 20:56 | 55.78225 | -4.27321 | 10476 ft | 183 kts | 187° |
| 2026-04-30 20:56 | 55.76957 | -4.27678 | 10916 ft | 183 kts | 187° |
| 2026-04-30 20:56 | 55.74453 | -4.28384 | 11741 ft | 183 kts | 188° |
| 2026-04-30 20:57 | 55.73190 | -4.28737 | 12158 ft | 184 kts | 187° |
| 2026-04-30 20:57 | 55.71913 | -4.28758 | 12607 ft | 184 kts | 174° |
| 2026-04-30 20:57 | 55.70664 | -4.28242 | 13067 ft | 185 kts | 163° |
| 2026-04-30 20:58 | 55.68359 | -4.26093 | 13961 ft | 189 kts | 156° |
| 2026-04-30 20:58 | 55.67202 | -4.24966 | 14364 ft | 190 kts | 156° |
| 2026-04-30 20:58 | 55.66035 | -4.23820 | 14767 ft | 192 kts | 156° |
| 2026-04-30 20:58 | 55.64861 | -4.22667 | 15166 ft | 193 kts | 156° |
| 2026-04-30 20:59 | 55.62498 | -4.20348 | 15972 ft | 195 kts | 155° |
| 2026-04-30 20:59 | 55.61308 | -4.19181 | 16368 ft | 196 kts | 155° |
| 2026-04-30 21:00 | 55.58908 | -4.16832 | 17150 ft | 199 kts | 155° |
| 2026-04-30 21:00 | 55.56464 | -4.14442 | 17954 ft | 202 kts | 155° |
| 2026-04-30 21:01 | 55.53997 | -4.12034 | 18711 ft | 204 kts | 155° |
| 2026-04-30 21:01 | 55.52746 | -4.10814 | 19071 ft | 205 kts | 155° |
| 2026-04-30 21:01 | 55.50252 | -4.08385 | 19765 ft | 206 kts | 155° |
| 2026-04-30 21:02 | 55.48988 | -4.07155 | 20110 ft | 207 kts | 155° |
| 2026-04-30 21:02 | 55.47738 | -4.05938 | 20458 ft | 208 kts | 155° |
| 2026-04-30 21:02 | 55.46462 | -4.04700 | 20815 ft | 209 kts | 155° |
| 2026-04-30 21:02 | 55.45196 | -4.03470 | 21154 ft | 210 kts | 155° |
| 2026-04-30 21:03 | 55.43910 | -4.02223 | 21504 ft | 211 kts | 155° |
| 2026-04-30 21:03 | 55.42617 | -4.00969 | 21869 ft | 212 kts | 155° |
| 2026-04-30 21:03 | 55.41337 | -3.99729 | 22293 ft | 212 kts | 156° |
| 2026-04-30 21:03 | 55.40040 | -3.98473 | 22710 ft | 213 kts | 156° |
| 2026-04-30 21:04 | 55.38726 | -3.97203 | 23123 ft | 214 kts | 156° |
| 2026-04-30 21:04 | 55.37376 | -3.95905 | 23198 ft | 228 kts | 155° |
| 2026-04-30 21:04 | 55.34492 | -3.93129 | 23211 ft | 246 kts | 155° |
| 2026-04-30 21:05 | 55.32970 | -3.91659 | 23211 ft | 251 kts | 155° |
| 2026-04-30 21:05 | 55.32843 | -3.91537 | 23213 ft | 251 kts | 155° |
| 2026-04-30 21:07 | 55.31563 | -3.90305 | 23216 ft | 255 kts | 155° |
| 2026-04-30 21:07 | 55.29983 | -3.88784 | 23212 ft | 258 kts | 155° |
| 2026-04-30 21:07 | 55.28423 | -3.87284 | 23211 ft | 260 kts | 155° |
| 2026-04-30 21:08 | 55.26831 | -3.85753 | 23212 ft | 261 kts | 155° |
| 2026-04-30 21:08 | 55.25240 | -3.84226 | 23215 ft | 261 kts | 155° |
| 2026-04-30 21:08 | 55.23632 | -3.82684 | 23215 ft | 262 kts | 155° |
| 2026-04-30 21:08 | 55.22031 | -3.81150 | 23212 ft | 263 kts | 155° |
| 2026-04-30 21:09 | 55.20439 | -3.79627 | 23214 ft | 263 kts | 155° |
| 2026-04-30 21:09 | 55.18837 | -3.78093 | 23212 ft | 263 kts | 155° |
| 2026-04-30 21:09 | 55.17223 | -3.76550 | 23209 ft | 263 kts | 155° |
| 2026-04-30 21:09 | 55.15610 | -3.75010 | 23205 ft | 263 kts | 155° |
| 2026-04-30 21:10 | 55.13998 | -3.73472 | 23200 ft | 263 kts | 155° |
| 2026-04-30 21:10 | 55.12389 | -3.71939 | 23200 ft | 263 kts | 155° |
| 2026-04-30 21:10 | 55.10788 | -3.70414 | 23198 ft | 264 kts | 155° |
| 2026-04-30 21:10 | 55.09176 | -3.68881 | 23202 ft | 263 kts | 155° |
| 2026-04-30 21:11 | 55.07561 | -3.67345 | 23197 ft | 263 kts | 155° |
| 2026-04-30 21:11 | 55.05947 | -3.65813 | 23201 ft | 263 kts | 155° |
| 2026-04-30 21:11 | 55.04339 | -3.64286 | 23199 ft | 263 kts | 155° |
| 2026-04-30 21:11 | 55.02749 | -3.62780 | 23199 ft | 263 kts | 155° |
| 2026-04-30 21:12 | 55.01138 | -3.61253 | 23202 ft | 263 kts | 155° |
| 2026-04-30 21:12 | 54.99527 | -3.59728 | 23200 ft | 263 kts | 155° |
| 2026-04-30 21:12 | 54.97920 | -3.58210 | 23199 ft | 263 kts | 155° |
| 2026-04-30 21:12 | 54.96314 | -3.56697 | 23196 ft | 263 kts | 155° |
| 2026-04-30 21:13 | 54.94703 | -3.55177 | 23198 ft | 263 kts | 155° |
| 2026-04-30 21:13 | 54.93096 | -3.53663 | 23198 ft | 262 kts | 155° |
| 2026-04-30 21:13 | 54.91510 | -3.52170 | 23198 ft | 262 kts | 155° |
| 2026-04-30 21:13 | 54.89893 | -3.50651 | 23196 ft | 262 kts | 155° |
| 2026-04-30 21:14 | 54.88287 | -3.49143 | 23196 ft | 262 kts | 155° |
| 2026-04-30 21:14 | 54.86689 | -3.47643 | 23194 ft | 262 kts | 155° |
| 2026-04-30 21:14 | 54.85086 | -3.46139 | 23194 ft | 262 kts | 155° |
| 2026-04-30 21:14 | 54.83472 | -3.44628 | 23195 ft | 262 kts | 155° |
| 2026-04-30 21:15 | 54.81866 | -3.43125 | 23196 ft | 262 kts | 155° |
| 2026-04-30 21:15 | 54.80278 | -3.41641 | 23197 ft | 262 kts | 155° |
| 2026-04-30 21:15 | 54.78663 | -3.40132 | 23195 ft | 262 kts | 155° |
| 2026-04-30 21:15 | 54.77054 | -3.38630 | 23192 ft | 262 kts | 155° |
| 2026-04-30 21:16 | 54.75460 | -3.37144 | 23194 ft | 262 kts | 155° |
| 2026-04-30 21:16 | 54.73828 | -3.35623 | 23198 ft | 262 kts | 155° |
| 2026-04-30 21:16 | 54.72237 | -3.34150 | 23199 ft | 262 kts | 156° |
| 2026-04-30 21:16 | 54.70568 | -3.32885 | 23206 ft | 261 kts | 160° |
| 2026-04-30 21:17 | 54.68893 | -3.31628 | 23200 ft | 262 kts | 159° |
| 2026-04-30 21:17 | 54.67223 | -3.30357 | 23202 ft | 262 kts | 159° |
| 2026-04-30 21:17 | 54.65570 | -3.29112 | 23199 ft | 262 kts | 160° |
| 2026-04-30 21:17 | 54.63875 | -3.27843 | 23202 ft | 262 kts | 160° |
| 2026-04-30 21:18 | 54.62219 | -3.26601 | 23203 ft | 262 kts | 159° |
| 2026-04-30 21:18 | 54.60544 | -3.25344 | 23199 ft | 262 kts | 160° |
| 2026-04-30 21:18 | 54.58876 | -3.24096 | 23207 ft | 261 kts | 160° |
| 2026-04-30 21:18 | 54.57225 | -3.22862 | 23213 ft | 260 kts | 160° |
| 2026-04-30 21:19 | 54.55554 | -3.21610 | 23206 ft | 261 kts | 160° |
| 2026-04-30 21:19 | 54.53884 | -3.20361 | 23212 ft | 260 kts | 159° |
| 2026-04-30 21:19 | 54.52223 | -3.19123 | 23216 ft | 259 kts | 159° |
| 2026-04-30 21:19 | 54.50573 | -3.17894 | 23218 ft | 260 kts | 159° |
| 2026-04-30 21:20 | 54.48909 | -3.16652 | 23208 ft | 260 kts | 159° |
| 2026-04-30 21:20 | 54.47242 | -3.15413 | 23215 ft | 261 kts | 160° |
| 2026-04-30 21:20 | 54.45586 | -3.14184 | 23215 ft | 262 kts | 159° |
| 2026-04-30 21:20 | 54.43916 | -3.12945 | 23211 ft | 262 kts | 159° |
| 2026-04-30 21:21 | 54.42233 | -3.11695 | 23213 ft | 262 kts | 159° |
| 2026-04-30 21:21 | 54.40568 | -3.10460 | 23206 ft | 262 kts | 159° |
| 2026-04-30 21:21 | 54.37224 | -3.07985 | 23215 ft | 263 kts | 159° |
| 2026-04-30 21:22 | 54.35535 | -3.06738 | 23212 ft | 263 kts | 159° |
| 2026-04-30 21:22 | 54.30501 | -3.03020 | 23212 ft | 263 kts | 159° |
| 2026-04-30 21:23 | 54.28817 | -3.01780 | 23209 ft | 263 kts | 159° |
| 2026-04-30 21:23 | 54.27141 | -3.00547 | 23211 ft | 263 kts | 159° |
| 2026-04-30 21:23 | 54.23790 | -2.98083 | 23210 ft | 263 kts | 159° |
| 2026-04-30 21:24 | 54.22109 | -2.96849 | 23206 ft | 263 kts | 159° |
| 2026-04-30 21:24 | 54.20431 | -2.95618 | 23213 ft | 263 kts | 159° |
| 2026-04-30 21:24 | 54.18744 | -2.94383 | 23211 ft | 263 kts | 159° |
| 2026-04-30 21:24 | 54.17081 | -2.93165 | 23208 ft | 263 kts | 159° |
| 2026-04-30 21:25 | 54.13716 | -2.90705 | 23210 ft | 263 kts | 159° |
| 2026-04-30 21:25 | 54.12028 | -2.89472 | 23209 ft | 262 kts | 159° |
| 2026-04-30 21:25 | 54.10345 | -2.88245 | 23206 ft | 262 kts | 159° |
| 2026-04-30 21:26 | 54.06997 | -2.85806 | 23210 ft | 262 kts | 159° |
| 2026-04-30 21:26 | 54.05316 | -2.84583 | 23202 ft | 262 kts | 159° |
| 2026-04-30 21:27 | 54.01956 | -2.82141 | 23200 ft | 262 kts | 159° |
| 2026-04-30 21:27 | 54.00275 | -2.80922 | 23202 ft | 262 kts | 159° |
| 2026-04-30 21:27 | 53.98620 | -2.79721 | 23203 ft | 262 kts | 159° |
| 2026-04-30 21:28 | 53.95257 | -2.77284 | 23204 ft | 262 kts | 159° |
| 2026-04-30 21:28 | 53.93576 | -2.76067 | 23204 ft | 262 kts | 159° |
| 2026-04-30 21:28 | 53.90782 | -2.74047 | 23202 ft | 262 kts | 159° |
| 2026-04-30 21:29 | 53.89098 | -2.72832 | 23204 ft | 262 kts | 159° |
| 2026-04-30 21:29 | 53.84056 | -2.69201 | 23202 ft | 262 kts | 159° |
| 2026-04-30 21:30 | 53.80699 | -2.66790 | 23196 ft | 262 kts | 159° |
| 2026-04-30 21:31 | 53.75670 | -2.63183 | 23197 ft | 262 kts | 159° |
| 2026-04-30 21:31 | 53.72300 | -2.60771 | 23196 ft | 262 kts | 159° |
| 2026-04-30 21:32 | 53.68951 | -2.58379 | 23200 ft | 262 kts | 159° |
| 2026-04-30 21:32 | 53.67267 | -2.57178 | 23196 ft | 262 kts | 159° |
| 2026-04-30 21:32 | 53.65586 | -2.55980 | 23199 ft | 262 kts | 159° |
| 2026-04-30 21:32 | 53.63900 | -2.54779 | 23195 ft | 263 kts | 159° |
| 2026-04-30 21:33 | 53.62218 | -2.53582 | 23198 ft | 263 kts | 159° |
| 2026-04-30 21:33 | 53.58843 | -2.51184 | 23200 ft | 263 kts | 159° |
| 2026-04-30 21:33 | 53.57153 | -2.49984 | 23197 ft | 263 kts | 159° |
| 2026-04-30 21:34 | 53.55464 | -2.48787 | 23198 ft | 263 kts | 159° |
| 2026-04-30 21:34 | 53.52102 | -2.46406 | 23198 ft | 263 kts | 159° |
| 2026-04-30 21:34 | 53.50407 | -2.45207 | 23199 ft | 263 kts | 159° |
| 2026-04-30 21:35 | 53.48712 | -2.44009 | 23202 ft | 263 kts | 159° |
| 2026-04-30 21:35 | 53.47025 | -2.42818 | 23199 ft | 263 kts | 159° |
| 2026-04-30 21:35 | 53.45334 | -2.41625 | 23200 ft | 263 kts | 159° |
| 2026-04-30 21:35 | 53.43667 | -2.40450 | 23205 ft | 263 kts | 159° |
| 2026-04-30 21:36 | 53.41974 | -2.39258 | 23203 ft | 263 kts | 159° |
| 2026-04-30 21:36 | 53.40304 | -2.38083 | 23202 ft | 263 kts | 159° |
| 2026-04-30 21:37 | 53.35241 | -2.34527 | 23200 ft | 263 kts | 159° |
| 2026-04-30 21:37 | 53.33554 | -2.33344 | 23207 ft | 263 kts | 159° |
| 2026-04-30 21:37 | 53.31860 | -2.32158 | 23205 ft | 263 kts | 159° |
| 2026-04-30 21:37 | 53.30180 | -2.30981 | 23204 ft | 263 kts | 159° |
| 2026-04-30 21:38 | 53.28487 | -2.29798 | 23203 ft | 263 kts | 159° |
| 2026-04-30 21:38 | 53.26794 | -2.28615 | 23203 ft | 263 kts | 159° |
| 2026-04-30 21:38 | 53.25118 | -2.27445 | 23203 ft | 263 kts | 159° |
| 2026-04-30 21:38 | 53.23426 | -2.26265 | 23199 ft | 263 kts | 159° |
| 2026-04-30 21:39 | 53.21730 | -2.25083 | 23201 ft | 263 kts | 159° |
| 2026-04-30 21:39 | 53.20041 | -2.23906 | 23201 ft | 263 kts | 159° |
| 2026-04-30 21:39 | 53.18348 | -2.22729 | 23204 ft | 263 kts | 159° |
| 2026-04-30 21:39 | 53.16651 | -2.21550 | 23200 ft | 264 kts | 159° |
| 2026-04-30 21:40 | 53.15037 | -2.20416 | 23197 ft | 264 kts | 157° |
| 2026-04-30 21:40 | 53.13398 | -2.18816 | 23200 ft | 265 kts | 147° |
| 2026-04-30 21:40 | 53.11932 | -2.16996 | 23201 ft | 266 kts | 147° |
| 2026-04-30 21:40 | 53.10435 | -2.15176 | 23202 ft | 266 kts | 147° |
| 2026-04-30 21:41 | 53.08938 | -2.13363 | 23199 ft | 266 kts | 147° |
| 2026-04-30 21:41 | 53.07445 | -2.11543 | 23202 ft | 266 kts | 147° |
| 2026-04-30 21:41 | 53.05944 | -2.09711 | 23201 ft | 266 kts | 147° |
| 2026-04-30 21:41 | 53.04448 | -2.07890 | 23202 ft | 266 kts | 147° |
| 2026-04-30 21:42 | 53.02972 | -2.06099 | 23206 ft | 266 kts | 147° |
| 2026-04-30 21:42 | 53.01458 | -2.04261 | 23208 ft | 266 kts | 147° |
| 2026-04-30 21:42 | 53.00054 | -2.02558 | 23206 ft | 267 kts | 147° |
| 2026-04-30 21:42 | 52.98562 | -2.00749 | 23208 ft | 267 kts | 147° |
| 2026-04-30 21:43 | 52.97046 | -1.98912 | 23206 ft | 267 kts | 147° |
| 2026-04-30 21:43 | 52.95541 | -1.97091 | 23211 ft | 267 kts | 147° |
| 2026-04-30 21:43 | 52.94036 | -1.95272 | 23207 ft | 267 kts | 147° |
| 2026-04-30 21:43 | 52.92552 | -1.93479 | 23209 ft | 267 kts | 147° |
| 2026-04-30 21:44 | 52.91051 | -1.91667 | 23207 ft | 267 kts | 147° |
| 2026-04-30 21:44 | 52.89550 | -1.89856 | 23215 ft | 267 kts | 147° |
| 2026-04-30 21:44 | 52.88036 | -1.88034 | 23209 ft | 267 kts | 147° |
| 2026-04-30 21:44 | 52.86536 | -1.86228 | 23210 ft | 267 kts | 147° |
| 2026-04-30 21:45 | 52.85028 | -1.84415 | 23210 ft | 268 kts | 147° |
| 2026-04-30 21:45 | 52.83512 | -1.82593 | 23213 ft | 269 kts | 147° |
| 2026-04-30 21:45 | 52.81999 | -1.80778 | 23217 ft | 270 kts | 147° |
| 2026-04-30 21:45 | 52.80477 | -1.78952 | 23218 ft | 270 kts | 147° |
| 2026-04-30 21:46 | 52.78969 | -1.77144 | 23218 ft | 270 kts | 147° |
| 2026-04-30 21:46 | 52.77432 | -1.75305 | 23169 ft | 270 kts | 147° |
| 2026-04-30 21:46 | 52.75904 | -1.73477 | 23163 ft | 271 kts | 147° |
| 2026-04-30 21:46 | 52.74353 | -1.71718 | 23159 ft | 270 kts | 152° |
| 2026-04-30 21:47 | 52.72704 | -1.70322 | 23156 ft | 269 kts | 155° |
| 2026-04-30 21:47 | 52.71030 | -1.68868 | 23151 ft | 269 kts | 154° |
| 2026-04-30 21:47 | 52.69396 | -1.67437 | 23141 ft | 269 kts | 154° |
| 2026-04-30 21:47 | 52.67731 | -1.66006 | 23137 ft | 269 kts | 154° |
| 2026-04-30 21:48 | 52.66067 | -1.64582 | 23128 ft | 269 kts | 154° |
| 2026-04-30 21:48 | 52.64397 | -1.63148 | 23121 ft | 270 kts | 154° |
| 2026-04-30 21:48 | 52.62733 | -1.61716 | 23115 ft | 269 kts | 154° |
| 2026-04-30 21:48 | 52.61085 | -1.60302 | 23114 ft | 269 kts | 154° |
| 2026-04-30 21:49 | 52.59400 | -1.58858 | 23109 ft | 269 kts | 154° |
| 2026-04-30 21:49 | 52.57761 | -1.57455 | 23109 ft | 269 kts | 154° |
| 2026-04-30 21:49 | 52.56098 | -1.56032 | 23112 ft | 269 kts | 154° |
| 2026-04-30 21:49 | 52.54431 | -1.54606 | 23117 ft | 269 kts | 154° |
| 2026-04-30 21:50 | 52.52778 | -1.53196 | 23115 ft | 269 kts | 154° |
| 2026-04-30 21:50 | 52.51118 | -1.51779 | 23120 ft | 270 kts | 154° |
| 2026-04-30 21:50 | 52.49459 | -1.50363 | 23206 ft | 270 kts | 154° |
| 2026-04-30 21:50 | 52.47781 | -1.48934 | 23205 ft | 270 kts | 154° |
| 2026-04-30 21:51 | 52.46130 | -1.47529 | 23205 ft | 270 kts | 154° |
| 2026-04-30 21:51 | 52.44462 | -1.46109 | 23207 ft | 270 kts | 154° |
| 2026-04-30 21:51 | 52.42793 | -1.44691 | 23207 ft | 270 kts | 154° |
| 2026-04-30 21:51 | 52.41124 | -1.43275 | 23206 ft | 270 kts | 154° |
| 2026-04-30 21:52 | 52.39457 | -1.41860 | 23225 ft | 270 kts | 154° |
| 2026-04-30 21:52 | 52.37780 | -1.40439 | 23225 ft | 270 kts | 154° |
| 2026-04-30 21:52 | 52.36122 | -1.39035 | 23224 ft | 270 kts | 154° |
| 2026-04-30 21:52 | 52.34449 | -1.37619 | 23229 ft | 270 kts | 154° |
| 2026-04-30 21:53 | 52.32776 | -1.36204 | 23228 ft | 270 kts | 154° |
| 2026-04-30 21:53 | 52.31105 | -1.34783 | 23226 ft | 270 kts | 153° |
| 2026-04-30 21:53 | 52.29572 | -1.33043 | 23228 ft | 272 kts | 143° |
| 2026-04-30 21:53 | 52.28229 | -1.30845 | 23227 ft | 274 kts | 134° |
| 2026-04-30 21:54 | 52.27016 | -1.28433 | 23234 ft | 274 kts | 134° |
| 2026-04-30 21:54 | 52.25786 | -1.26049 | 23233 ft | 274 kts | 134° |
| 2026-04-30 21:54 | 52.24571 | -1.23696 | 23230 ft | 274 kts | 134° |
| 2026-04-30 21:54 | 52.23334 | -1.21284 | 23229 ft | 274 kts | 134° |
| 2026-04-30 21:55 | 52.22112 | -1.18901 | 23231 ft | 274 kts | 134° |
| 2026-04-30 21:55 | 52.20892 | -1.16532 | 23225 ft | 274 kts | 134° |
| 2026-04-30 21:55 | 52.19658 | -1.14138 | 23226 ft | 274 kts | 134° |
| 2026-04-30 21:55 | 52.18424 | -1.11745 | 23225 ft | 274 kts | 134° |
| 2026-04-30 21:56 | 52.17199 | -1.09369 | 23223 ft | 274 kts | 134° |
| 2026-04-30 21:56 | 52.15989 | -1.07026 | 23222 ft | 274 kts | 134° |
| 2026-04-30 21:56 | 52.14807 | -1.04613 | 23218 ft | 276 kts | 128° |
| 2026-04-30 21:56 | 52.13869 | -1.01804 | 23218 ft | 280 kts | 118° |
| 2026-04-30 21:57 | 52.13266 | -0.98764 | 23215 ft | 285 kts | 109° |
| 2026-04-30 21:57 | 52.13017 | -0.95537 | 23216 ft | 290 kts | 98° |
| 2026-04-30 21:57 | 52.13044 | -0.92240 | 23219 ft | 292 kts | 96° |
| 2026-04-30 21:57 | 52.13065 | -0.88938 | 23216 ft | 292 kts | 96° |
| 2026-04-30 21:58 | 52.13075 | -0.85647 | 23217 ft | 292 kts | 96° |
| 2026-04-30 21:58 | 52.13092 | -0.82376 | 23214 ft | 292 kts | 96° |
| 2026-04-30 21:58 | 52.13109 | -0.79044 | 23001 ft | 298 kts | 96° |
| 2026-04-30 21:58 | 52.13121 | -0.75622 | 22680 ft | 304 kts | 96° |
| 2026-04-30 21:59 | 52.13134 | -0.72137 | 22328 ft | 309 kts | 95° |
| 2026-04-30 21:59 | 52.13151 | -0.68668 | 21985 ft | 311 kts | 95° |
| 2026-04-30 21:59 | 52.13166 | -0.65125 | 21632 ft | 312 kts | 95° |
| 2026-04-30 22:00 | 52.13190 | -0.58070 | 20934 ft | 312 kts | 95° |
| 2026-04-30 22:00 | 52.13211 | -0.50993 | 20231 ft | 311 kts | 95° |
| 2026-04-30 22:00 | 52.13219 | -0.47466 | 19878 ft | 311 kts | 94° |
| 2026-04-30 22:01 | 52.13226 | -0.43973 | 19533 ft | 310 kts | 94° |
| 2026-04-30 22:01 | 52.13233 | -0.40448 | 19182 ft | 310 kts | 94° |
| 2026-04-30 22:01 | 52.13238 | -0.36941 | 18835 ft | 309 kts | 94° |
| 2026-04-30 22:01 | 52.13242 | -0.33460 | 18483 ft | 308 kts | 94° |
| 2026-04-30 22:02 | 52.13246 | -0.29969 | 18112 ft | 307 kts | 94° |
| 2026-04-30 22:02 | 52.13249 | -0.26514 | 17764 ft | 305 kts | 94° |
| 2026-04-30 22:02 | 52.13250 | -0.23066 | 17420 ft | 303 kts | 94° |
| 2026-04-30 22:02 | 52.13250 | -0.19644 | 17083 ft | 302 kts | 94° |
| 2026-04-30 22:03 | 52.13249 | -0.16236 | 16742 ft | 301 kts | 94° |
| 2026-04-30 22:03 | 52.13246 | -0.12937 | 16414 ft | 299 kts | 94° |
| 2026-04-30 22:03 | 52.13245 | -0.09578 | 16084 ft | 298 kts | 94° |
| 2026-04-30 22:03 | 52.13241 | -0.06199 | 15752 ft | 298 kts | 94° |
| 2026-04-30 22:04 | 52.13235 | -0.02833 | 15419 ft | 297 kts | 94° |
| 2026-04-30 22:04 | 52.13230 | 0.00523 | 15086 ft | 296 kts | 94° |
| 2026-04-30 22:04 | 52.13216 | 0.07203 | 14420 ft | 294 kts | 94° |
| 2026-04-30 22:05 | 52.13208 | 0.10509 | 14096 ft | 293 kts | 94° |
| 2026-04-30 22:05 | 52.13198 | 0.13816 | 13740 ft | 292 kts | 94° |
| 2026-04-30 22:05 | 52.13014 | 0.17080 | 13415 ft | 287 kts | 103° |
| 2026-04-30 22:05 | 52.12722 | 0.20306 | 13081 ft | 286 kts | 101° |
| 2026-04-30 22:06 | 52.12153 | 0.23324 | 12880 ft | 276 kts | 123° |
| 2026-04-30 22:06 | 52.09122 | 0.26589 | 12333 ft | 267 kts | 166° |
| 2026-04-30 22:06 | 52.07275 | 0.26799 | 12026 ft | 268 kts | 184° |
| 2026-04-30 22:07 | 52.05454 | 0.26135 | 11698 ft | 269 kts | 194° |
| 2026-04-30 22:07 | 52.04269 | 0.25592 | 11490 ft | 267 kts | 193° |
| 2026-04-30 22:07 | 52.02468 | 0.24918 | 11166 ft | 264 kts | 190° |
| 2026-04-30 22:07 | 52.00667 | 0.24327 | 10852 ft | 263 kts | 190° |
| 2026-04-30 22:08 | 51.98896 | 0.23705 | 10541 ft | 255 kts | 191° |
| 2026-04-30 22:08 | 51.97181 | 0.23093 | 10251 ft | 248 kts | 190° |
| 2026-04-30 22:08 | 51.95513 | 0.22505 | 9951 ft | 242 kts | 190° |
| 2026-04-30 22:08 | 51.93883 | 0.21930 | 9666 ft | 240 kts | 190° |
| 2026-04-30 22:09 | 51.92244 | 0.21349 | 9379 ft | 243 kts | 190° |
| 2026-04-30 22:09 | 51.90571 | 0.20753 | 9078 ft | 246 kts | 190° |
| 2026-04-30 22:09 | 51.88905 | 0.20161 | 8779 ft | 246 kts | 190° |
| 2026-04-30 22:09 | 51.87224 | 0.19571 | 8481 ft | 247 kts | 190° |
| 2026-04-30 22:10 | 51.85549 | 0.18981 | 8183 ft | 247 kts | 190° |
| 2026-04-30 22:10 | 51.83888 | 0.18396 | 7890 ft | 247 kts | 190° |
| 2026-04-30 22:10 | 51.82207 | 0.17806 | 7595 ft | 247 kts | 190° |
| 2026-04-30 22:10 | 51.80529 | 0.17214 | 7301 ft | 247 kts | 190° |
| 2026-04-30 22:11 | 51.77179 | 0.16039 | 6708 ft | 247 kts | 190° |
| 2026-04-30 22:11 | 51.75501 | 0.15449 | 6400 ft | 247 kts | 191° |
| 2026-04-30 22:11 | 51.73842 | 0.14866 | 6100 ft | 246 kts | 190° |
| 2026-04-30 22:12 | 51.72156 | 0.14277 | 5789 ft | 244 kts | 191° |
| 2026-04-30 22:12 | 51.70517 | 0.13703 | 5505 ft | 242 kts | 191° |
| 2026-04-30 22:12 | 51.68870 | 0.13129 | 5196 ft | 241 kts | 191° |
| 2026-04-30 22:12 | 51.67229 | 0.12552 | 4897 ft | 240 kts | 191° |
| 2026-04-30 22:13 | 51.65602 | 0.11983 | 4600 ft | 238 kts | 190° |
| 2026-04-30 22:13 | 51.63986 | 0.11419 | 4301 ft | 235 kts | 190° |
| 2026-04-30 22:13 | 51.62400 | 0.10865 | 4011 ft | 233 kts | 189° |
| 2026-04-30 22:13 | 51.60819 | 0.10316 | 3724 ft | 231 kts | 189° |
| 2026-04-30 22:14 | 51.59317 | 0.09791 | 3450 ft | 229 kts | 188° |
| 2026-04-30 22:14 | 51.57766 | 0.09255 | 3169 ft | 227 kts | 188° |
| 2026-04-30 22:14 | 51.56254 | 0.08460 | 2897 ft | 231 kts | 201° |
| 2026-04-30 22:14 | 51.54905 | 0.07066 | 2612 ft | 220 kts | 214° |
| 2026-04-30 22:15 | 51.53893 | 0.05386 | 2362 ft | 203 kts | 224° |
| 2026-04-30 22:15 | 51.53150 | 0.03479 | 2218 ft | 205 kts | 236° |
| 2026-04-30 22:15 | 51.52635 | 0.01186 | 2224 ft | 231 kts | 251° |
| 2026-04-30 22:15 | 51.52477 | -0.01444 | 2222 ft | 240 kts | 266° |
| 2026-04-30 22:16 | 51.52728 | -0.04084 | 2224 ft | 244 kts | 283° |
| 2026-04-30 22:16 | 51.53277 | -0.06660 | 2218 ft | 242 kts | 285° |
| 2026-04-30 22:17 | 51.54856 | -0.14319 | 2220 ft | 240 kts | 285° |
| 2026-04-30 22:17 | 51.55385 | -0.16851 | 2218 ft | 236 kts | 285° |
| 2026-04-30 22:17 | 51.56412 | -0.21823 | 2210 ft | 231 kts | 285° |
| 2026-04-30 22:18 | 51.56902 | -0.24184 | 2196 ft | 219 kts | 285° |
| 2026-04-30 22:18 | 51.57823 | -0.28726 | 2206 ft | 214 kts | 282° |
| 2026-04-30 22:19 | 51.57251 | -0.33028 | 2203 ft | 188 kts | 223° |
| 2026-04-30 22:19 | 51.56301 | -0.34339 | 2208 ft | 175 kts | 201° |
| 2026-04-30 22:19 | 51.54052 | -0.34861 | 2207 ft | 161 kts | 162° |
| 2026-04-30 22:20 | 51.53048 | -0.34184 | 2196 ft | 147 kts | 146° |
| 2026-04-30 22:20 | 51.51846 | -0.31882 | 2206 ft | 145 kts | 117° |
| 2026-04-30 22:20 | 51.51617 | -0.30409 | 2203 ft | 123 kts | 102° |
| 2026-04-30 22:21 | 51.51583 | -0.29058 | 2210 ft | 132 kts | 100° |
| 2026-04-30 22:21 | 51.51524 | -0.27433 | 2217 ft | 156 kts | 100° |
| 2026-04-30 22:21 | 51.51466 | -0.25671 | 2221 ft | 161 kts | 99° |
| 2026-04-30 22:21 | 51.51413 | -0.23859 | 2220 ft | 163 kts | 99° |
| 2026-04-30 22:22 | 51.51359 | -0.22031 | 2222 ft | 164 kts | 99° |
| 2026-04-30 22:22 | 51.51308 | -0.20252 | 2217 ft | 154 kts | 99° |
| 2026-04-30 22:22 | 51.51254 | -0.18551 | 2213 ft | 153 kts | 99° |
| 2026-04-30 22:22 | 51.51183 | -0.16832 | 2215 ft | 155 kts | 99° |
| 2026-04-30 22:23 | 51.51125 | -0.15122 | 2211 ft | 156 kts | 99° |
| 2026-04-30 22:23 | 51.51071 | -0.13409 | 2208 ft | 150 kts | 99° |
| 2026-04-30 22:23 | 51.51024 | -0.11804 | 2201 ft | 138 kts | 99° |
| 2026-04-30 22:23 | 51.50986 | -0.10230 | 2207 ft | 145 kts | 99° |
| 2026-04-30 22:24 | 51.50950 | -0.08627 | 2203 ft | 134 kts | 99° |
| 2026-04-30 22:24 | 51.50925 | -0.07279 | 2203 ft | 120 kts | 100° |
| 2026-04-30 22:24 | 51.50878 | -0.05848 | 2204 ft | 124 kts | 99° |
| 2026-04-30 22:24 | 51.50838 | -0.04513 | 2036 ft | 110 kts | 101° |
| 2026-04-30 22:25 | 51.50803 | -0.03365 | 1774 ft | 97 kts | 101° |
| 2026-04-30 22:25 | 51.50767 | -0.02337 | 1538 ft | 90 kts | 98° |
| 2026-04-30 22:25 | 51.50738 | -0.01319 | 1313 ft | 90 kts | 98° |
| 2026-04-30 22:25 | 51.50705 | -0.00336 | 1091 ft | 84 kts | 97° |
| 2026-04-30 22:26 | 51.50653 | 0.01428 | 709 ft | 74 kts | 93° |
| 2026-04-30 22:26 | 51.50626 | 0.02325 | 520 ft | 83 kts | 92° |
| 2026-04-30 22:26 | 51.50596 | 0.03185 | 307 ft | 79 kts | 91° |
| 2026-04-30 22:27 | 51.50564 | 0.04084 | 150 ft | 81 kts | 92° |
| 2026-04-30 22:27 | 51.50538 | 0.04924 | 39 ft | 72 kts | 91° |
| 2026-04-30 22:27 | 51.50505 | 0.06160 | 21 ft | 21 kts | 94° |
| 2026-04-30 22:28 | 51.50469 | 0.06298 | 25 ft | 30 kts | 310° |
| 2026-04-30 22:28 | 51.50521 | 0.05599 | 19 ft | 74 kts | 274° |
| 2026-04-30 22:29 | 51.50412 | 0.05159 | 22 ft | 0 kts | 182° |